createdAt,value
2019-03-29T00:02:14.538Z,99.90
2019-03-29T00:04:44.255Z,99.90
2019-03-29T00:07:14.002Z,99.90
2019-03-29T00:09:43.862Z,99.90
2019-03-29T00:12:13.607Z,99.90
2019-03-29T00:14:43.356Z,99.90
2019-03-29T00:17:13.118Z,99.90
2019-03-29T00:19:42.845Z,99.90
2019-03-29T00:22:12.554Z,99.90
2019-03-29T00:24:42.287Z,99.90
2019-03-29T00:27:12.013Z,99.90
2019-03-29T00:29:41.883Z,99.90
2019-03-29T00:32:11.607Z,99.90
2019-03-29T00:34:42.043Z,99.90
2019-03-29T00:37:11.998Z,99.90
2019-03-29T00:39:41.728Z,99.90
2019-03-29T00:42:11.454Z,99.90
2019-03-29T00:44:41.182Z,99.90
2019-03-29T00:47:10.974Z,99.90
2019-03-29T00:49:41.012Z,99.90
2019-03-29T00:52:10.726Z,99.90
2019-03-29T00:54:40.492Z,99.90
2019-03-29T00:57:10.230Z,99.90
2019-03-29T00:59:40.193Z,99.90
2019-03-29T01:02:10.471Z,99.90
2019-03-29T01:04:40.207Z,99.90
2019-03-29T01:07:09.926Z,99.90
2019-03-29T01:09:39.694Z,99.90
2019-03-29T01:12:09.455Z,99.90
2019-03-29T01:14:39.222Z,99.90
2019-03-29T01:17:08.975Z,99.90
2019-03-29T01:19:38.728Z,99.90
2019-03-29T01:22:08.507Z,99.90
2019-03-29T01:24:38.320Z,99.90
2019-03-29T01:27:08.163Z,99.90
2019-03-29T01:29:37.924Z,99.90
2019-03-29T01:32:07.668Z,99.90
2019-03-29T01:34:37.445Z,99.90
2019-03-29T01:37:07.271Z,99.90
2019-03-29T01:39:37.028Z,99.90
2019-03-29T01:42:06.825Z,99.90
2019-03-29T01:44:36.567Z,99.90
2019-03-29T01:47:06.307Z,99.90
2019-03-29T01:49:36.031Z,99.90
2019-03-29T01:52:05.805Z,99.90
2019-03-29T01:54:35.543Z,99.90
2019-03-29T01:57:05.287Z,99.90
2019-03-29T01:59:35.043Z,99.90
2019-03-29T02:02:04.804Z,99.90
2019-03-29T02:04:34.992Z,99.90
2019-03-29T02:07:04.996Z,99.90
2019-03-29T02:09:34.763Z,99.90
2019-03-29T02:12:04.775Z,99.90
2019-03-29T02:14:34.503Z,99.90
2019-03-29T02:17:04.272Z,99.90
2019-03-29T02:19:34.044Z,99.90
2019-03-29T02:22:03.794Z,99.90
2019-03-29T02:24:33.515Z,99.90
2019-03-29T02:27:03.254Z,99.90
2019-03-29T02:29:32.995Z,99.90
2019-03-29T02:32:02.789Z,99.90
2019-03-29T02:34:32.560Z,99.90
2019-03-29T02:37:02.712Z,99.90
2019-03-29T02:39:32.558Z,99.90
2019-03-29T02:42:02.284Z,99.90
2019-03-29T02:44:32.004Z,99.90
2019-03-29T02:47:01.727Z,99.90
2019-03-29T02:49:31.492Z,99.90
2019-03-29T02:52:01.260Z,99.90
2019-03-29T02:54:31.036Z,99.90
2019-03-29T02:57:01.152Z,99.90
2019-03-29T02:59:30.881Z,99.90
2019-03-29T03:02:00.626Z,99.90
2019-03-29T03:04:30.372Z,99.90
2019-03-29T03:07:00.233Z,99.90
2019-03-29T03:09:30.031Z,99.90
2019-03-29T03:11:59.811Z,99.90
2019-03-29T03:14:29.555Z,99.90
2019-03-29T03:16:59.418Z,99.90
2019-03-29T03:19:29.139Z,99.90
2019-03-29T03:21:58.911Z,99.90
2019-03-29T03:24:28.632Z,99.90
2019-03-29T03:26:58.463Z,99.90
2019-03-29T03:29:28.200Z,99.90
2019-03-29T03:31:58.084Z,99.90
2019-03-29T03:34:27.801Z,99.90
2019-03-29T03:36:57.571Z,99.90
2019-03-29T03:39:32.022Z,99.90
2019-03-29T03:41:58.744Z,99.90
2019-03-29T03:44:28.491Z,99.90
2019-03-29T03:46:58.368Z,99.90
2019-03-29T03:49:28.109Z,99.90
2019-03-29T03:51:57.927Z,99.90
2019-03-29T03:54:27.659Z,99.90
2019-03-29T03:56:58.024Z,99.90
2019-03-29T03:59:28.892Z,99.90
2019-03-29T04:01:58.636Z,99.90
2019-03-29T04:04:28.408Z,99.90
2019-03-29T04:06:58.140Z,99.90
2019-03-29T04:09:27.907Z,99.90
2019-03-29T04:11:57.643Z,99.90
2019-03-29T04:14:27.419Z,99.90
2019-03-29T04:16:57.152Z,99.90
2019-03-29T04:19:26.922Z,99.90
2019-03-29T04:21:56.732Z,99.90
2019-03-29T04:24:26.490Z,99.90
2019-03-29T04:26:56.208Z,99.90
2019-03-29T04:29:26.055Z,99.90
2019-03-29T04:31:55.880Z,99.90
2019-03-29T04:34:25.584Z,99.90
2019-03-29T04:36:55.346Z,99.90
2019-03-29T04:39:25.108Z,99.90
2019-03-29T04:41:54.859Z,99.90
2019-03-29T04:44:24.621Z,99.90
2019-03-29T04:46:54.341Z,99.90
2019-03-29T04:49:24.107Z,99.90
2019-03-29T04:51:53.882Z,99.90
2019-03-29T04:54:23.656Z,99.90
2019-03-29T04:56:53.387Z,99.90
2019-03-29T04:59:23.167Z,99.90
2019-03-29T05:01:52.927Z,99.90
2019-03-29T05:04:22.774Z,99.90
2019-03-29T05:06:52.447Z,99.90
2019-03-29T05:09:22.184Z,99.90
2019-03-29T05:11:51.943Z,99.90
2019-03-29T05:14:21.676Z,99.90
2019-03-29T05:16:51.509Z,99.90
2019-03-29T05:19:21.260Z,99.90
2019-03-29T05:21:50.999Z,99.90
2019-03-29T05:24:20.754Z,99.90
2019-03-29T05:26:50.488Z,99.90
2019-03-29T05:29:20.263Z,99.90
2019-03-29T05:31:50.027Z,99.90
2019-03-29T05:34:19.870Z,99.90
2019-03-29T05:36:49.636Z,99.90
2019-03-29T05:39:19.378Z,99.90
2019-03-29T05:41:49.128Z,99.90
2019-03-29T05:44:18.843Z,99.90
2019-03-29T05:46:48.606Z,99.90
2019-03-29T05:49:18.388Z,99.90
2019-03-29T05:51:48.170Z,99.90
2019-03-29T05:54:17.935Z,99.90
2019-03-29T05:56:47.783Z,99.90
2019-03-29T05:59:17.539Z,99.90
2019-03-29T06:01:48.159Z,99.90
2019-03-29T06:04:18.880Z,99.90
2019-03-29T06:06:48.627Z,99.90
2019-03-29T06:09:18.424Z,99.90
2019-03-29T06:11:48.369Z,99.90
2019-03-29T06:14:18.148Z,99.90
2019-03-29T06:16:47.912Z,99.90
2019-03-29T06:19:17.687Z,99.90
2019-03-29T06:21:47.468Z,99.90
2019-03-29T06:24:17.238Z,99.90
2019-03-29T06:26:47.079Z,99.90
2019-03-29T06:29:16.997Z,99.90
2019-03-29T06:31:46.739Z,99.90
2019-03-29T06:34:16.507Z,99.90
2019-03-29T06:36:47.456Z,99.90
2019-03-29T06:39:21.181Z,99.90
2019-03-29T06:41:49.775Z,99.90
2019-03-29T06:44:19.514Z,99.90
2019-03-29T06:46:49.292Z,99.90
2019-03-29T06:49:19.012Z,99.90
2019-03-29T06:51:48.832Z,99.90
2019-03-29T06:54:18.655Z,99.90
2019-03-29T06:56:48.471Z,99.90
2019-03-29T06:59:18.244Z,99.90
2019-03-29T07:01:48.107Z,99.90
2019-03-29T07:04:18.184Z,99.90
2019-03-29T07:06:48.010Z,99.90
2019-03-29T07:09:17.756Z,99.90
2019-03-29T07:11:47.553Z,99.90
2019-03-29T07:14:17.387Z,99.90
2019-03-29T07:16:47.172Z,99.90
2019-03-29T07:19:16.883Z,99.90
2019-03-29T07:21:46.922Z,99.90
2019-03-29T07:24:16.653Z,99.90
2019-03-29T07:26:46.406Z,99.90
2019-03-29T07:29:16.197Z,99.90
2019-03-29T07:31:45.940Z,99.90
2019-03-29T07:34:15.679Z,99.90
2019-03-29T07:36:45.563Z,99.90
2019-03-29T07:39:15.520Z,99.90
2019-03-29T07:41:45.338Z,99.90
2019-03-29T07:44:15.167Z,99.90
2019-03-29T07:46:44.930Z,99.90
2019-03-29T07:49:14.689Z,99.60
2019-03-29T07:51:44.465Z,97.00
2019-03-29T07:54:14.333Z,97.20
2019-03-29T07:56:44.084Z,96.10
2019-03-29T07:59:14.659Z,93.80
2019-03-29T08:01:44.591Z,95.60
2019-03-29T08:04:14.540Z,96.30
2019-03-29T08:06:46.548Z,96.70
2019-03-29T08:09:22.218Z,93.40
2019-03-29T08:11:47.192Z,92.30
2019-03-29T08:14:16.980Z,92.00
2019-03-29T08:16:46.711Z,91.90
2019-03-29T08:19:16.452Z,84.90
2019-03-29T08:21:46.247Z,84.90
2019-03-29T08:24:16.016Z,87.90
2019-03-29T08:26:45.788Z,90.00
2019-03-29T08:29:15.532Z,88.20
2019-03-29T08:31:45.309Z,85.50
2019-03-29T08:34:15.051Z,77.40
2019-03-29T08:36:44.930Z,79.50
2019-03-29T08:39:33.519Z,80.00
2019-03-29T08:42:03.300Z,79.80
2019-03-29T08:44:33.035Z,82.00
2019-03-29T08:47:02.816Z,79.10
2019-03-29T08:49:32.580Z,76.80
2019-03-29T08:52:02.403Z,79.00
2019-03-29T08:54:32.153Z,78.30
2019-03-29T08:57:01.934Z,80.20
2019-03-29T08:59:32.640Z,80.10
2019-03-29T09:02:02.395Z,80.00
2019-03-29T09:04:32.147Z,85.60
2019-03-29T09:07:01.932Z,89.70
2019-03-29T09:09:31.667Z,90.90
2019-03-29T09:12:13.859Z,92.30
2019-03-29T09:14:32.948Z,92.20
2019-03-29T09:17:02.702Z,93.20
2019-03-29T09:19:32.467Z,93.00
2019-03-29T09:22:02.207Z,92.50
2019-03-29T09:24:32.057Z,88.00
2019-03-29T09:27:01.895Z,88.90
2019-03-29T09:29:31.684Z,90.80
2019-03-29T09:32:01.560Z,92.60
2019-03-29T09:34:31.329Z,90.80
2019-03-29T09:37:01.309Z,87.80
2019-03-29T09:39:31.064Z,83.50
2019-03-29T09:42:00.828Z,80.50
2019-03-29T09:44:30.570Z,77.60
2019-03-29T09:47:00.346Z,76.90
2019-03-29T09:49:30.204Z,71.10
2019-03-29T09:52:00.004Z,75.80
2019-03-29T09:54:29.739Z,80.30
2019-03-29T09:56:59.522Z,84.10
2019-03-29T09:59:30.426Z,85.80
2019-03-29T10:02:01.358Z,84.80
2019-03-29T10:04:32.262Z,83.20
2019-03-29T10:07:02.076Z,86.80
2019-03-29T10:09:32.946Z,89.50
2019-03-29T10:12:03.866Z,91.00
2019-03-29T10:14:33.790Z,88.90
2019-03-29T10:17:03.595Z,89.30
2019-03-29T10:19:33.319Z,85.90
2019-03-29T10:22:03.083Z,88.80
2019-03-29T10:24:32.817Z,89.80
2019-03-29T10:27:02.614Z,90.20
2019-03-29T10:29:32.320Z,89.70
2019-03-29T10:32:05.479Z,91.10
2019-03-29T10:34:33.535Z,89.80
2019-03-29T10:37:03.316Z,90.50
2019-03-29T10:39:36.096Z,89.80
2019-03-29T10:42:05.851Z,88.60
2019-03-29T10:44:35.817Z,73.20
2019-03-29T10:47:05.559Z,72.70
2019-03-29T10:49:35.682Z,75.20
2019-03-29T10:52:05.982Z,68.70
2019-03-29T10:54:35.700Z,70.60
2019-03-29T10:57:05.553Z,69.20
2019-03-29T10:59:35.279Z,72.00
2019-03-29T11:02:05.705Z,74.40
2019-03-29T11:04:35.452Z,73.60
2019-03-29T11:07:05.231Z,77.40
2019-03-29T11:09:36.999Z,74.70
2019-03-29T11:12:06.611Z,76.80
2019-03-29T11:14:36.351Z,66.30
2019-03-29T11:17:06.103Z,68.60
2019-03-29T11:19:35.912Z,70.40
2019-03-29T11:22:05.756Z,74.20
2019-03-29T11:24:35.512Z,77.40
2019-03-29T11:27:05.275Z,79.80
2019-03-29T11:29:35.016Z,69.20
2019-03-29T11:32:05.355Z,68.40
2019-03-29T11:34:35.130Z,69.80
2019-03-29T11:37:04.811Z,69.60
2019-03-29T11:39:34.553Z,68.90
2019-03-29T11:42:04.318Z,68.60
2019-03-29T11:44:34.075Z,62.40
2019-03-29T11:47:04.935Z,67.70
2019-03-29T11:49:34.715Z,75.50
2019-03-29T11:52:04.502Z,80.80
2019-03-29T11:54:34.265Z,81.80
2019-03-29T11:57:04.018Z,80.50
2019-03-29T11:59:33.899Z,79.90
2019-03-29T12:02:03.709Z,75.60
2019-03-29T12:04:33.476Z,74.20
2019-03-29T12:07:03.641Z,75.80
2019-03-29T12:09:33.575Z,72.30
2019-03-29T12:12:03.327Z,71.10
2019-03-29T12:14:33.092Z,75.40
2019-03-29T12:17:02.852Z,77.60
2019-03-29T12:19:32.660Z,78.80
2019-03-29T12:22:02.505Z,81.00
2019-03-29T12:24:32.248Z,85.40
2019-03-29T12:27:02.406Z,88.60
2019-03-29T12:29:32.154Z,83.30
2019-03-29T12:32:02.023Z,84.10
2019-03-29T12:34:31.880Z,83.50
2019-03-29T12:37:01.866Z,85.70
2019-03-29T12:39:31.590Z,90.60
2019-03-29T12:42:02.449Z,90.10
2019-03-29T12:44:32.195Z,77.60
2019-03-29T12:47:01.971Z,72.40
2019-03-29T12:49:31.700Z,74.70
2019-03-29T12:52:01.670Z,80.90
2019-03-29T12:54:31.481Z,83.40
2019-03-29T12:57:01.512Z,72.70
2019-03-29T12:59:32.979Z,74.70
2019-03-29T13:02:03.728Z,75.70
2019-03-29T13:04:33.509Z,76.90
2019-03-29T13:07:03.319Z,74.10
2019-03-29T13:09:33.083Z,69.90
2019-03-29T13:12:02.843Z,71.20
2019-03-29T13:14:32.894Z,61.20
2019-03-29T13:17:03.654Z,61.70
2019-03-29T13:19:33.633Z,63.60
2019-03-29T13:22:05.470Z,73.80
2019-03-29T13:24:35.767Z,62.60
2019-03-29T13:27:05.687Z,63.10
2019-03-29T13:29:36.095Z,65.90
2019-03-29T13:32:06.427Z,73.00
2019-03-29T13:34:37.383Z,71.60
2019-03-29T13:37:07.579Z,77.50
2019-03-29T13:39:37.833Z,72.70
2019-03-29T13:42:07.875Z,60.70
2019-03-29T13:44:38.113Z,62.30
2019-03-29T13:47:08.211Z,64.60
2019-03-29T13:49:38.449Z,62.60
2019-03-29T13:52:08.409Z,66.30
2019-03-29T13:54:38.439Z,64.60
2019-03-29T13:57:08.313Z,59.90
2019-03-29T13:59:38.044Z,58.80
2019-03-29T14:02:07.843Z,58.60
2019-03-29T14:04:37.606Z,57.90
2019-03-29T14:07:07.423Z,58.40
2019-03-29T14:09:37.264Z,59.50
2019-03-29T14:12:07.057Z,61.40
2019-03-29T14:14:38.527Z,67.60
2019-03-29T14:17:08.443Z,69.60
2019-03-29T14:19:38.344Z,63.40
2019-03-29T14:22:08.220Z,58.10
2019-03-29T14:24:38.195Z,59.10
2019-03-29T14:27:07.981Z,57.60
2019-03-29T14:29:38.831Z,62.50
2019-03-29T14:32:08.599Z,64.00
2019-03-29T14:34:38.355Z,66.80
2019-03-29T14:37:08.137Z,71.60
2019-03-29T14:39:37.924Z,69.00
2019-03-29T14:42:07.792Z,70.70
2019-03-29T14:44:51.406Z,68.70
2019-03-29T14:47:09.088Z,75.60
2019-03-29T14:49:38.875Z,74.40
2019-03-29T14:52:08.695Z,63.00
2019-03-29T14:54:38.507Z,65.50
2019-03-29T14:57:08.347Z,64.90
2019-03-29T14:59:38.196Z,64.20
2019-03-29T15:02:07.934Z,63.10
2019-03-29T15:04:37.706Z,65.50
2019-03-29T15:07:07.565Z,71.00
2019-03-29T15:09:37.408Z,70.20
2019-03-29T15:12:07.373Z,62.10
2019-03-29T15:14:37.143Z,61.00
2019-03-29T15:17:06.920Z,64.80
2019-03-29T15:19:36.712Z,58.20
2019-03-29T15:22:06.470Z,57.60
2019-03-29T15:24:36.251Z,58.50
2019-03-29T15:27:06.035Z,57.00
2019-03-29T15:29:35.787Z,59.30
2019-03-29T15:32:05.552Z,62.60
2019-03-29T15:34:35.314Z,66.90
2019-03-29T15:37:05.076Z,65.70
2019-03-29T15:39:34.823Z,65.10
2019-03-29T15:42:04.594Z,66.00
2019-03-29T15:44:34.347Z,70.80
2019-03-29T15:47:04.109Z,69.60
2019-03-29T15:49:33.996Z,67.00
2019-03-29T15:52:03.798Z,65.30
2019-03-29T15:54:33.577Z,66.70
2019-03-29T15:57:03.359Z,67.50
2019-03-29T15:59:33.132Z,69.00
2019-03-29T16:02:02.886Z,71.90
2019-03-29T16:04:33.351Z,74.80
2019-03-29T16:07:03.981Z,78.70
2019-03-29T16:09:34.725Z,78.80
2019-03-29T16:12:04.511Z,80.50
2019-03-29T16:14:34.256Z,79.60
2019-03-29T16:17:04.021Z,79.10
2019-03-29T16:19:33.747Z,82.10
2019-03-29T16:22:06.064Z,81.50
2019-03-29T16:24:34.908Z,86.40
2019-03-29T16:27:04.668Z,87.70
2019-03-29T16:29:34.418Z,90.40
2019-03-29T16:32:04.212Z,92.00
2019-03-29T16:34:33.979Z,91.90
2019-03-29T16:37:03.734Z,92.30
2019-03-29T16:39:33.480Z,90.40
2019-03-29T16:42:03.248Z,91.40
2019-03-29T16:44:32.991Z,92.50
2019-03-29T16:47:02.762Z,94.40
2019-03-29T16:49:32.504Z,94.50
2019-03-29T16:52:02.268Z,94.30
2019-03-29T16:54:32.042Z,94.30
2019-03-29T16:57:01.867Z,94.80
2019-03-29T16:59:31.511Z,95.20
2019-03-29T17:02:01.297Z,96.40
2019-03-29T17:04:31.052Z,96.20
2019-03-29T17:07:00.823Z,95.10
2019-03-29T17:09:30.583Z,95.70
2019-03-29T17:12:00.342Z,95.90
2019-03-29T17:14:30.035Z,96.90
2019-03-29T17:16:59.832Z,98.00
2019-03-29T17:19:29.584Z,97.90
2019-03-29T17:21:59.383Z,98.10
2019-03-29T17:24:29.120Z,98.50
2019-03-29T17:26:58.962Z,98.10
2019-03-29T17:29:28.696Z,99.00
2019-03-29T17:31:58.544Z,99.90
2019-03-29T17:34:28.287Z,99.90
2019-03-29T17:36:58.047Z,99.90
2019-03-29T17:39:27.799Z,99.90
2019-03-29T17:41:58.966Z,99.90
2019-03-29T17:44:28.781Z,99.90
2019-03-29T17:46:58.542Z,99.90
2019-03-29T17:49:28.957Z,99.90
2019-03-29T17:51:58.693Z,99.90
2019-03-29T17:54:28.447Z,99.90
2019-03-29T17:56:58.276Z,99.90
2019-03-29T17:59:28.030Z,99.90
2019-03-29T18:02:08.786Z,99.90
2019-03-29T18:04:29.214Z,99.90
2019-03-29T18:06:59.035Z,99.90
2019-03-29T18:09:28.780Z,99.90
2019-03-29T18:11:58.563Z,99.90
2019-03-29T18:14:28.504Z,99.90
2019-03-29T18:16:58.258Z,99.90
2019-03-29T18:19:28.002Z,99.90
2019-03-29T18:21:57.771Z,99.90
2019-03-29T18:24:27.492Z,99.90
2019-03-29T18:26:57.255Z,99.90
2019-03-29T18:29:27.025Z,99.90
2019-03-29T18:31:56.793Z,99.90
2019-03-29T18:34:26.542Z,99.90
2019-03-29T18:36:58.055Z,99.90
2019-03-29T18:39:27.840Z,99.90
2019-03-29T18:41:57.599Z,99.90
2019-03-29T18:44:27.384Z,99.90
2019-03-29T18:46:57.128Z,99.90
2019-03-29T18:49:26.937Z,99.90
2019-03-29T18:51:56.715Z,99.90
2019-03-29T18:54:26.527Z,99.90
2019-03-29T18:56:56.284Z,99.90
2019-03-29T18:59:26.011Z,99.90
2019-03-29T19:01:55.832Z,99.90
2019-03-29T19:04:25.599Z,99.90
2019-03-29T19:06:55.376Z,99.90
2019-03-29T19:09:25.209Z,99.90
2019-03-29T19:11:55.097Z,99.90
2019-03-29T19:14:24.951Z,99.90
2019-03-29T19:16:59.196Z,99.90
2019-03-29T19:19:26.099Z,99.90
2019-03-29T19:21:55.864Z,99.90
2019-03-29T19:24:25.657Z,99.90
2019-03-29T19:26:55.411Z,99.90
2019-03-29T19:29:25.389Z,99.90
2019-03-29T19:31:56.277Z,99.90
2019-03-29T19:34:26.127Z,99.90
2019-03-29T19:36:55.936Z,99.90
2019-03-29T19:39:25.801Z,99.90
2019-03-29T19:41:56.583Z,99.90
2019-03-29T19:44:26.475Z,99.90
2019-03-29T19:46:56.749Z,99.90
2019-03-29T19:49:27.073Z,99.90
2019-03-29T19:51:56.790Z,99.90
2019-03-29T19:54:26.564Z,99.90
2019-03-29T19:56:56.376Z,99.90
2019-03-29T19:59:26.279Z,99.90
2019-03-29T20:01:56.099Z,99.90
2019-03-29T20:04:25.803Z,99.90
2019-03-29T20:06:55.848Z,99.90
2019-03-29T20:09:25.624Z,99.90
2019-03-29T20:11:55.496Z,99.90
2019-03-29T20:14:25.307Z,99.90
2019-03-29T20:16:55.385Z,99.90
2019-03-29T20:19:25.305Z,99.90
2019-03-29T20:21:55.407Z,99.90
2019-03-29T20:24:25.239Z,99.90
2019-03-29T20:26:54.985Z,99.90
2019-03-29T20:29:24.747Z,99.90
2019-03-29T20:31:54.592Z,99.90
2019-03-29T20:34:24.433Z,99.90
2019-03-29T20:36:54.172Z,99.90
2019-03-29T20:39:24.184Z,99.90
2019-03-29T20:41:54.095Z,99.90
2019-03-29T20:44:23.938Z,99.90
2019-03-29T20:46:53.827Z,99.90
2019-03-29T20:49:23.612Z,99.90
2019-03-29T20:51:53.530Z,99.90
2019-03-29T20:54:23.288Z,99.90
2019-03-29T20:56:53.061Z,99.90
2019-03-29T20:59:22.800Z,99.90
2019-03-29T21:01:52.998Z,99.90
2019-03-29T21:04:22.840Z,99.90
2019-03-29T21:06:52.836Z,99.90
2019-03-29T21:09:22.783Z,99.90
2019-03-29T21:11:52.853Z,99.90
2019-03-29T21:14:22.716Z,99.90
2019-03-29T21:16:52.449Z,99.90
2019-03-29T21:19:22.227Z,99.90
2019-03-29T21:21:51.988Z,99.90
2019-03-29T21:24:21.751Z,99.90
2019-03-29T21:26:51.491Z,99.90
2019-03-29T21:29:21.274Z,99.90
2019-03-29T21:31:51.016Z,99.90
2019-03-29T21:34:20.823Z,99.90
2019-03-29T21:36:50.581Z,99.90
2019-03-29T21:39:20.343Z,99.90
2019-03-29T21:41:50.124Z,99.90
2019-03-29T21:44:19.944Z,99.90
2019-03-29T21:46:49.716Z,99.90
2019-03-29T21:49:19.488Z,99.90
2019-03-29T21:51:49.338Z,99.90
2019-03-29T21:54:19.093Z,99.90
2019-03-29T21:56:48.862Z,99.90
2019-03-29T21:59:18.599Z,99.90
2019-03-29T22:01:48.376Z,99.90
2019-03-29T22:04:18.137Z,99.90
2019-03-29T22:06:48.258Z,99.90
2019-03-29T22:09:18.156Z,99.90
2019-03-29T22:11:47.943Z,99.90
2019-03-29T22:14:17.675Z,99.90
2019-03-29T22:16:47.415Z,99.90
2019-03-29T22:19:17.185Z,99.90
2019-03-29T22:21:47.210Z,99.90
2019-03-29T22:24:16.975Z,99.90
2019-03-29T22:26:47.175Z,99.90
2019-03-29T22:29:17.359Z,99.90
2019-03-29T22:31:47.116Z,99.90
2019-03-29T22:34:16.956Z,99.90
2019-03-29T22:36:46.696Z,99.90
2019-03-29T22:39:16.588Z,99.90
2019-03-29T22:41:46.345Z,99.90
2019-03-29T22:44:16.107Z,99.90
2019-03-29T22:46:45.937Z,99.90
2019-03-29T22:49:15.732Z,99.90
2019-03-29T22:51:45.586Z,99.90
2019-03-29T22:54:15.316Z,99.90
2019-03-29T22:56:45.097Z,99.90
2019-03-29T22:59:14.852Z,99.90
2019-03-29T23:01:46.758Z,99.90
2019-03-29T23:04:16.512Z,99.90
2019-03-29T23:06:46.367Z,99.90
2019-03-29T23:09:16.385Z,99.90
2019-03-29T23:11:46.135Z,99.90
2019-03-29T23:14:15.971Z,99.90
2019-03-29T23:16:45.708Z,99.90
2019-03-29T23:19:15.486Z,99.90
2019-03-29T23:21:45.231Z,99.90
2019-03-29T23:24:15.023Z,99.90
2019-03-29T23:26:44.853Z,99.90
2019-03-29T23:29:14.605Z,99.90
2019-03-29T23:31:44.475Z,99.90
2019-03-29T23:34:14.225Z,99.90
2019-03-29T23:36:43.996Z,99.90
2019-03-29T23:39:13.742Z,99.90
2019-03-29T23:41:43.520Z,99.90
2019-03-29T23:44:13.371Z,99.90
2019-03-29T23:46:43.120Z,99.90
2019-03-29T23:49:20.968Z,99.90
2019-03-29T23:51:44.404Z,99.90
2019-03-29T23:54:14.183Z,99.90
2019-03-29T23:56:43.943Z,99.90
2019-03-29T23:59:13.715Z,99.90
